Time;durP1;ratioP1;P1;durP2;ratioP2;P2;SDS_P1;SDS_P2;PMS_P1;PMS_P2;Temp;Humidity;BMP_temperature;BMP_pressure;BME280_temperature;BME280_humidity;BME280_pressure;Samples;Min_cycle;Max_cycle;Signal;HPM_P1;HPM_P2
2021/05/14 00:00:27;;;;;;;4.15;2.90;;;;;;;7.53;100.00;95038.41;1042812;28;20282;-69
2021/05/14 00:00:58;;;;;;;3.75;2.70;;;;;;;7.53;100.00;95041.00;1038888;28;20017;-69
2021/05/14 00:01:29;;;;;;;4.47;3.42;;;;;;;7.51;100.00;95037.88;1042792;28;20683;-69
2021/05/14 00:02:03;;;;;;;4.30;3.45;;;;;;;7.40;100.00;95025.84;1042777;28;20290;-69
2021/05/14 00:02:33;;;;;;;5.65;3.58;;;;;;;7.43;100.00;95025.34;1043111;28;20028;-69
2021/05/14 00:03:04;;;;;;;7.40;3.22;;;;;;;7.49;100.00;95045.19;1039953;28;20273;-68
2021/05/14 00:03:34;;;;;;;6.10;3.50;;;;;;;7.37;100.00;95026.38;1034902;28;20042;-69
2021/05/14 00:04:07;;;;;;;4.25;3.10;;;;;;;7.44;100.00;95034.72;1034945;28;20025;-68
2021/05/14 00:04:38;;;;;;;3.50;2.65;;;;;;;7.43;100.00;95036.56;1035929;28;20592;-71
2021/05/14 00:05:09;;;;;;;6.88;3.58;;;;;;;7.33;100.00;95024.28;1048100;28;20286;-68
2021/05/14 00:05:39;;;;;;;4.93;2.80;;;;;;;7.36;100.00;95027.44;1046519;28;20024;-68
2021/05/14 00:06:10;;;;;;;4.88;2.95;;;;;;;7.40;100.00;95031.84;1045440;28;20035;-68
2021/05/14 00:06:40;;;;;;;7.38;3.22;;;;;;;7.40;100.00;95031.06;1043137;28;20052;-70
2021/05/14 00:07:13;;;;;;;3.63;2.83;;;;;;;7.39;100.00;95035.50;1042793;28;20017;-68
2021/05/14 00:07:44;;;;;;;7.75;3.35;;;;;;;7.39;100.00;95032.13;1043852;28;20029;-69
2021/05/14 00:08:14;;;;;;;5.28;2.95;;;;;;;7.28;100.00;95024.28;1043336;28;20259;-68
2021/05/14 00:08:45;;;;;;;6.40;3.38;;;;;;;7.36;100.00;95038.63;1032976;28;20018;-68
2021/05/14 00:09:16;;;;;;;3.88;2.60;;;;;;;7.35;100.00;95028.47;1030983;28;20084;-68
2021/05/14 00:09:46;;;;;;;3.42;3.05;;;;;;;7.32;100.00;95035.75;1034786;28;20018;-67
2021/05/14 00:10:17;;;;;;;2.90;2.55;;;;;;;7.30;100.00;95026.63;1039156;28;20025;-68
2021/05/14 00:10:48;;;;;;;4.90;2.75;;;;;;;7.31;100.00;95034.22;1043102;28;20063;-69
2021/05/14 00:11:19;;;;;;;9.07;3.47;;;;;;;7.30;100.00;95034.44;1043007;28;20256;-69
2021/05/14 00:11:50;;;;;;;2.78;2.55;;;;;;;7.28;100.00;95033.94;1039167;28;20018;-68
2021/05/14 00:12:20;;;;;;;5.68;3.70;;;;;;;7.26;100.00;95026.34;1046116;28;21165;-68
2021/05/14 00:12:52;;;;;;;5.70;3.47;;;;;;;7.23;100.00;95032.09;1055442;28;20027;-69
2021/05/14 00:13:23;;;;;;;3.75;2.78;;;;;;;7.22;100.00;95030.53;1051586;28;20535;-68
2021/05/14 00:13:56;;;;;;;4.80;2.90;;;;;;;7.20;100.00;95035.22;1049859;28;20274;-68
2021/05/14 00:14:26;;;;;;;4.93;2.78;;;;;;;7.20;100.00;95035.22;1046747;28;21125;-68
2021/05/14 00:14:57;;;;;;;5.63;3.30;;;;;;;7.18;100.00;95026.88;1051534;28;20269;-68
2021/05/14 00:15:27;;;;;;;9.20;3.80;;;;;;;7.12;100.00;95025.28;1051736;28;20044;-69
2021/05/14 00:15:57;;;;;;;6.25;2.83;;;;;;;7.14;100.00;95031.03;1046596;28;20533;-69
2021/05/14 00:16:28;;;;;;;3.45;2.60;;;;;;;7.15;100.00;95030.00;1042632;28;20555;-69
2021/05/14 00:16:58;;;;;;;3.83;2.92;;;;;;;7.14;100.00;95025.03;1043109;28;20025;-69
2021/05/14 00:17:29;;;;;;;3.80;2.30;;;;;;;6.95;100.00;95001.25;1042719;28;20048;-68
2021/05/14 00:17:59;;;;;;;5.38;2.55;;;;;;;7.14;100.00;95028.41;1042912;28;20119;-69
2021/05/14 00:18:30;;;;;;;2.70;2.47;;;;;;;7.12;100.00;95030.50;1051183;28;20032;-69
2021/05/14 00:19:00;;;;;;;3.10;2.30;;;;;;;7.13;100.00;95026.06;1047325;28;20024;-68
2021/05/14 00:19:33;;;;;;;5.07;2.70;;;;;;;7.03;100.00;95017.19;1048961;28;20070;-70
2021/05/14 00:20:04;;;;;;;4.43;2.78;;;;;;;7.06;100.00;95027.09;1051349;28;20020;-69
2021/05/14 00:20:38;;;;;;;5.22;3.38;;;;;;;7.06;100.00;95026.31;1051838;28;20266;-69
2021/05/14 00:21:08;;;;;;;5.13;3.13;;;;;;;7.04;100.00;95018.78;1054082;28;20300;-68
2021/05/14 00:21:42;;;;;;;6.32;3.33;;;;;;;7.01;100.00;95024.50;1048169;28;20270;-68
2021/05/14 00:22:12;;;;;;;3.83;3.05;;;;;;;7.00;100.00;95022.13;1049443;28;20259;-69
2021/05/14 00:22:43;;;;;;;3.65;3.00;;;;;;;6.97;100.00;95023.41;1046770;28;20024;-69
2021/05/14 00:23:13;;;;;;;4.50;3.15;;;;;;;6.98;100.00;95024.22;1038620;28;20079;-67
2021/05/14 00:23:44;;;;;;;3.70;2.75;;;;;;;6.96;100.00;95021.84;1038380;28;20239;-69
2021/05/14 00:24:14;;;;;;;3.63;3.03;;;;;;;6.95;100.00;95022.13;1043016;28;20087;-69
2021/05/14 00:24:46;;;;;;;4.90;3.25;;;;;;;6.95;100.00;95020.31;1046957;28;20126;-69
2021/05/14 00:25:16;;;;;;;4.05;3.08;;;;;;;6.93;100.00;95019.75;1042338;28;20478;-67
2021/05/14 00:25:47;;;;;;;4.03;2.63;;;;;;;6.92;100.00;95020.81;1036508;28;20280;-69
2021/05/14 00:26:17;;;;;;;4.00;2.70;;;;;;;6.91;100.00;95023.66;1038916;28;20022;-69
2021/05/14 00:26:48;;;;;;;3.78;3.17;;;;;;;6.91;100.00;95018.44;1039215;28;20049;-70
2021/05/14 00:27:18;;;;;;;2.78;2.20;;;;;;;6.86;100.00;95008.78;1046796;28;20032;-68
2021/05/14 00:27:49;;;;;;;3.10;2.75;;;;;;;6.93;100.00;95021.59;1043007;28;20017;-68
2021/05/14 00:28:22;;;;;;;4.15;2.80;;;;;;;6.90;100.00;95015.06;1043068;28;20017;-68
2021/05/14 00:28:52;;;;;;;5.47;2.90;;;;;;;6.85;100.00;95015.84;1042695;28;20017;-69
2021/05/14 00:29:23;;;;;;;4.75;2.05;;;;;;;6.94;100.00;95023.97;1044003;28;20263;-69
2021/05/14 00:29:53;;;;;;;4.15;2.72;;;;;;;6.94;100.00;95020.53;1050706;27;20020;-67
2021/05/14 00:30:24;;;;;;;2.70;2.50;;;;;;;6.93;100.00;95018.97;1059520;27;20027;-69
2021/05/14 00:30:54;;;;;;;8.57;3.30;;;;;;;6.90;100.00;95028.09;1052513;28;20031;-69
2021/05/14 00:31:24;;;;;;;4.03;2.28;;;;;;;6.89;100.00;95021.31;1047165;28;20024;-70
2021/05/14 00:31:55;;;;;;;3.50;2.65;;;;;;;6.90;100.00;95022.09;1042260;28;20044;-67
2021/05/14 00:32:25;;;;;;;4.75;2.40;;;;;;;6.90;100.00;95022.09;1042736;28;20017;-68
2021/05/14 00:32:56;;;;;;;4.82;2.75;;;;;;;6.81;100.00;95008.78;1042865;28;20021;-70
2021/05/14 00:33:26;;;;;;;4.60;2.70;;;;;;;6.88;100.00;95017.16;1042927;28;20013;-69
2021/05/14 00:33:57;;;;;;;3.83;2.55;;;;;;;6.77;100.00;95013.75;1041916;28;20028;-69
2021/05/14 00:34:27;;;;;;;5.82;2.63;;;;;;;6.85;100.00;95018.44;1047037;28;20056;-68
2021/05/14 00:34:58;;;;;;;4.05;2.50;;;;;;;6.82;100.00;95016.34;1047175;28;20017;-69
2021/05/14 00:35:28;;;;;;;4.82;3.05;;;;;;;6.79;100.00;95022.06;1051046;28;20067;-68
2021/05/14 00:35:58;;;;;;;3.15;2.67;;;;;;;6.81;100.00;95022.63;1046138;28;20020;-67
2021/05/14 00:36:29;;;;;;;4.60;2.78;;;;;;;6.81;100.00;95024.44;1049214;28;20020;-69
2021/05/14 00:36:59;;;;;;;3.53;2.50;;;;;;;6.71;100.00;95009.53;1047163;28;20027;-69
2021/05/14 00:37:30;;;;;;;6.22;3.10;;;;;;;6.67;100.00;95008.47;1040879;28;20021;-69
2021/05/14 00:38:01;;;;;;;4.25;2.60;;;;;;;6.79;100.00;95019.47;1043076;28;20048;-69
2021/05/14 00:38:31;;;;;;;5.03;2.30;;;;;;;6.80;100.00;95023.63;1037484;28;20473;-70
2021/05/14 00:39:02;;;;;;;3.92;2.70;;;;;;;6.73;100.00;95017.09;1038689;28;20762;-68
2021/05/14 00:39:32;;;;;;;3.75;2.72;;;;;;;6.78;100.00;95024.94;1038556;28;20017;-67
2021/05/14 00:40:05;;;;;;;5.43;3.00;;;;;;;6.77;100.00;95029.38;1036174;28;20017;-69
2021/05/14 00:40:35;;;;;;;4.97;2.28;;;;;;;6.79;100.00;95027.28;1035341;28;20037;-68
2021/05/14 00:41:05;;;;;;;3.88;2.35;;;;;;;6.75;100.00;95015.81;1043097;28;20275;-69
2021/05/14 00:41:36;;;;;;;2.97;2.38;;;;;;;6.78;100.00;95023.13;1041013;28;20021;-68
2021/05/14 00:42:06;;;;;;;4.35;2.85;;;;;;;6.78;100.00;95020.50;1039088;28;20026;-69
2021/05/14 00:42:37;;;;;;;5.00;2.42;;;;;;;6.79;100.00;95024.69;1042221;28;20074;-68
2021/05/14 00:43:08;;;;;;;4.35;2.72;;;;;;;6.73;100.00;95020.47;1043033;28;20033;-70
2021/05/14 00:43:38;;;;;;;3.03;2.42;;;;;;;6.76;100.00;95025.19;1032879;28;20085;-69
2021/05/14 00:44:34;;;;;;;3.63;2.38;;;;;;;6.53;100.00;94991.75;1038404;28;20041;-68
2021/05/14 00:45:05;;;;;;;3.30;2.65;;;;;;;6.74;100.00;95024.69;1042708;28;20035;-68
2021/05/14 00:45:36;;;;;;;6.85;2.67;;;;;;;6.73;100.00;95023.09;1049331;28;20273;-69
2021/05/14 00:46:06;;;;;;;4.30;2.83;;;;;;;6.71;100.00;95017.38;1050363;28;20685;-68
2021/05/14 00:46:36;;;;;;;3.28;2.50;;;;;;;6.68;100.00;95022.31;1047325;28;20114;-70
2021/05/14 00:47:08;;;;;;;7.38;3.42;;;;;;;6.63;100.00;95012.63;1043115;28;20091;-67
2021/05/14 00:47:39;;;;;;;4.00;2.70;;;;;;;6.69;100.00;95027.25;1039428;28;20026;-68
2021/05/14 00:48:12;;;;;;;5.88;3.53;;;;;;;6.66;100.00;95027.75;1039191;28;20746;-69
2021/05/14 00:48:42;;;;;;;5.88;3.22;;;;;;;6.64;100.00;95027.25;1039925;28;20018;-68
2021/05/14 00:49:13;;;;;;;2.92;2.67;;;;;;;6.55;100.00;95013.91;1044671;28;20259;-68
2021/05/14 00:49:44;;;;;;;6.15;3.88;;;;;;;6.61;100.00;95025.94;1047011;28;20036;-68
2021/05/14 00:50:15;;;;;;;5.47;3.40;;;;;;;6.60;100.00;95028.78;1039852;28;20033;-68
2021/05/14 00:50:45;;;;;;;3.13;2.13;;;;;;;6.62;100.00;95024.09;1043160;28;20311;-69
2021/05/14 00:51:16;;;;;;;3.75;2.15;;;;;;;6.57;100.00;95016.25;1038664;28;20021;-68
2021/05/14 00:51:47;;;;;;;7.88;2.80;;;;;;;6.62;100.00;95026.72;1035136;28;20014;-68
2021/05/14 00:52:18;;;;;;;7.57;2.58;;;;;;;6.59;100.00;95022.78;1035105;28;20257;-67
2021/05/14 00:52:49;;;;;;;3.72;2.88;;;;;;;6.58;100.00;95025.66;1031372;28;20037;-68
2021/05/14 00:53:19;;;;;;;2.63;2.42;;;;;;;6.57;100.00;95022.28;1035435;28;20300;-69
2021/05/14 00:53:50;;;;;;;2.95;2.50;;;;;;;6.59;100.00;95028.00;1039739;28;20033;-69
2021/05/14 00:54:20;;;;;;;5.18;2.35;;;;;;;6.63;100.00;95028.25;1047554;28;20024;-69
2021/05/14 00:54:51;;;;;;;3.08;2.10;;;;;;;6.60;100.00;95023.56;1038881;28;20688;-68
2021/05/14 00:55:24;;;;;;;3.28;2.13;;;;;;;6.61;100.00;95027.75;1043843;28;20017;-68
2021/05/14 00:55:54;;;;;;;5.20;2.63;;;;;;;6.53;100.00;95012.59;1047251;28;20051;-68
2021/05/14 00:56:24;;;;;;;4.65;3.17;;;;;;;6.56;100.00;95025.13;1043438;28;20263;-68
2021/05/14 00:56:58;;;;;;;4.00;2.20;;;;;;;6.50;100.00;95013.88;1047138;28;20016;-69
2021/05/14 00:57:29;;;;;;;2.60;2.40;;;;;;;6.56;100.00;95023.28;1043554;28;20752;-68
2021/05/14 00:57:59;;;;;;;4.90;2.85;;;;;;;6.56;100.00;95028.50;1043408;28;20291;-68
2021/05/14 00:58:30;;;;;;;4.40;2.85;;;;;;;6.54;100.00;95024.59;1043231;28;20047;-68
2021/05/14 00:59:00;;;;;;;2.90;2.17;;;;;;;6.52;100.00;95024.84;1043414;28;20025;-69
2021/05/14 00:59:31;;;;;;;3.97;2.42;;;;;;;6.53;100.00;95020.41;1043339;28;20691;-68
2021/05/14 01:00:01;;;;;;;3.15;2.22;;;;;;;6.52;100.00;95027.44;1051293;28;20377;-69
2021/05/14 01:00:32;;;;;;;2.70;2.38;;;;;;;6.51;100.00;95025.88;1050968;28;20032;-68
2021/05/14 01:01:05;;;;;;;6.28;3.00;;;;;;;6.49;100.00;95027.94;1050247;28;20125;-68
2021/05/14 01:01:36;;;;;;;2.75;2.30;;;;;;;6.40;100.00;95013.06;1051538;28;20331;-68
2021/05/14 01:02:06;;;;;;;4.30;1.98;;;;;;;6.49;100.00;95024.56;1038126;28;20105;-68
2021/05/14 01:02:39;;;;;;;3.25;2.08;;;;;;;6.47;100.00;95024.03;1039178;28;20738;-68
2021/05/14 01:03:14;;;;;;;4.10;2.45;;;;;;;6.47;100.00;95024.03;1039043;28;20088;-69
2021/05/14 01:03:44;;;;;;;2.88;2.30;;;;;;;6.44;100.00;95019.31;1038551;28;20754;-68
2021/05/14 01:04:15;;;;;;;4.30;2.47;;;;;;;6.33;100.00;95008.84;1041052;28;20260;-69
2021/05/14 01:04:45;;;;;;;3.53;2.42;;;;;;;6.44;100.00;95025.34;1039609;28;20026;-69
2021/05/14 01:05:16;;;;;;;4.63;2.33;;;;;;;6.45;100.00;95023.50;1040972;28;20021;-68
2021/05/14 01:05:46;;;;;;;2.80;2.30;;;;;;;6.45;100.00;95020.91;1042622;28;20024;-68
2021/05/14 01:06:17;;;;;;;3.25;2.50;;;;;;;6.42;100.00;95029.22;1038934;28;20481;-68
2021/05/14 01:06:50;;;;;;;8.85;2.80;;;;;;;6.40;100.00;95024.25;1047784;28;20114;-68
2021/05/14 01:07:20;;;;;;;2.95;2.20;;;;;;;6.38;100.00;95032.34;1055853;28;20123;-68
2021/05/14 01:07:51;;;;;;;9.70;2.60;;;;;;;6.37;100.00;95029.97;1047868;28;20324;-69
2021/05/14 01:08:21;;;;;;;3.22;2.53;;;;;;;6.37;100.00;95028.16;1043187;28;20017;-69
2021/05/14 01:08:52;;;;;;;5.40;2.88;;;;;;;6.35;100.00;95026.84;1038666;28;20014;-69
2021/05/14 01:09:22;;;;;;;2.55;2.35;;;;;;;6.33;100.00;95023.69;1043265;28;20040;-68
2021/05/14 01:09:53;;;;;;;4.63;2.60;;;;;;;6.31;100.00;95031.78;1035132;28;20108;-68
2021/05/14 01:10:23;;;;;;;4.38;2.42;;;;;;;6.31;100.00;95029.19;1036543;28;20034;-68
2021/05/14 01:10:53;;;;;;;5.88;2.67;;;;;;;6.30;100.00;95027.59;1042428;28;20083;-70
2021/05/14 01:11:24;;;;;;;2.65;2.35;;;;;;;6.23;100.00;95019.22;1043272;28;20478;-71
2021/05/14 01:11:54;;;;;;;8.65;3.97;;;;;;;6.24;100.00;95022.63;1043199;28;20024;-68
2021/05/14 01:12:25;;;;;;;5.63;2.58;;;;;;;6.26;100.00;95034.34;1042957;28;20092;-69
2021/05/14 01:12:55;;;;;;;4.88;2.63;;;;;;;6.27;100.00;95033.34;1039254;28;20031;-69
2021/05/14 01:13:26;;;;;;;3.17;2.30;;;;;;;6.19;100.00;95020.75;1039238;28;20028;-69
2021/05/14 01:13:57;;;;;;;4.22;2.40;;;;;;;6.25;100.00;95037.22;1041962;28;20021;-70
2021/05/14 01:14:27;;;;;;;4.60;2.97;;;;;;;6.24;100.00;95033.84;1047079;28;20024;-69
2021/05/14 01:14:58;;;;;;;4.40;3.38;;;;;;;6.15;100.00;95022.31;1051638;28;20840;-69
2021/05/14 01:15:28;;;;;;;2.80;2.00;;;;;;;6.21;100.00;95034.34;1048766;28;20040;-68
2021/05/14 01:15:59;;;;;;;5.70;2.03;;;;;;;6.22;100.00;95029.91;1044174;28;20109;-69
2021/05/14 01:16:29;;;;;;;4.05;2.33;;;;;;;6.20;100.00;95032.75;1042748;28;20486;-69
2021/05/14 01:17:00;;;;;;;2.95;2.10;;;;;;;6.17;100.00;95020.25;1043461;28;20775;-68
2021/05/14 01:17:34;;;;;;;3.17;2.53;;;;;;;6.23;100.00;95029.63;1046734;28;20016;-70
2021/05/14 01:18:04;;;;;;;2.40;2.20;;;;;;;6.20;100.00;95027.53;1043579;28;21137;-69
2021/05/14 01:18:34;;;;;;;4.60;2.65;;;;;;;6.22;100.00;95032.50;1039232;28;20347;-69
2021/05/14 01:19:05;;;;;;;2.10;1.90;;;;;;;6.25;100.00;95032.78;1036078;28;20049;-69
2021/05/14 01:19:35;;;;;;;2.45;2.00;;;;;;;6.25;100.00;95029.41;1038981;28;20036;-68
2021/05/14 01:20:06;;;;;;;6.60;2.38;;;;;;;6.18;100.00;95016.59;1035171;28;20454;-68
2021/05/14 01:20:37;;;;;;;2.85;2.35;;;;;;;6.11;100.00;95019.44;1040742;28;20017;-68
2021/05/14 01:21:07;;;;;;;3.95;2.45;;;;;;;6.17;100.00;95019.44;1045589;28;20103;-68
2021/05/14 01:21:38;;;;;;;6.00;2.75;;;;;;;6.19;100.00;95033.78;1047312;28;20020;-68
2021/05/14 01:22:08;;;;;;;5.57;2.50;;;;;;;6.11;100.00;95018.66;1035607;28;20446;-69
2021/05/14 01:22:39;;;;;;;3.97;3.15;;;;;;;6.20;100.00;95030.13;1041547;28;20025;-68
2021/05/14 01:23:10;;;;;;;3.15;2.30;;;;;;;6.17;100.00;95029.84;1038855;28;20120;-69
2021/05/14 01:23:40;;;;;;;7.05;3.28;;;;;;;6.14;100.00;95026.75;1036092;28;20869;-68
2021/05/14 01:24:11;;;;;;;3.10;2.58;;;;;;;6.09;100.00;95012.91;1039124;28;20033;-69
2021/05/14 01:24:41;;;;;;;3.22;2.63;;;;;;;6.15;100.00;95032.72;1038696;28;20017;-68
2021/05/14 01:25:12;;;;;;;4.85;2.35;;;;;;;6.12;100.00;95028.81;1043022;28;20040;-68
2021/05/14 01:25:42;;;;;;;3.38;2.63;;;;;;;6.11;100.00;95037.66;1040893;28;20028;-68
2021/05/14 01:26:17;;;;;;;4.07;2.95;;;;;;;6.09;100.00;95028.53;1043121;28;20033;-69
2021/05/14 01:26:47;;;;;;;4.55;2.35;;;;;;;6.07;100.00;95027.97;1048328;28;20374;-68
2021/05/14 01:27:18;;;;;;;3.30;2.65;;;;;;;6.07;100.00;95030.56;1043858;28;20313;-66
2021/05/14 01:27:48;;;;;;;4.78;2.55;;;;;;;6.06;100.00;95035.00;1038310;28;20743;-68
2021/05/14 01:28:19;;;;;;;4.03;2.90;;;;;;;6.05;100.00;95030.06;1039258;28;20034;-68
2021/05/14 01:28:49;;;;;;;3.78;2.58;;;;;;;6.02;100.00;95031.34;1038852;28;20059;-69
2021/05/14 01:29:20;;;;;;;4.32;2.40;;;;;;;5.97;100.00;95018.31;1042936;28;20025;-68
2021/05/14 01:29:50;;;;;;;3.42;2.20;;;;;;;6.02;100.00;95030.56;1043185;28;20071;-68
2021/05/14 01:30:21;;;;;;;5.38;2.55;;;;;;;6.01;100.00;95032.38;1042970;28;20391;-68
2021/05/14 01:30:53;;;;;;;4.15;2.50;;;;;;;5.99;100.00;95034.44;1042751;28;20037;-68
2021/05/14 01:31:24;;;;;;;3.45;2.50;;;;;;;5.96;100.00;95028.97;1046715;28;20474;-68
2021/05/14 01:31:55;;;;;;;4.55;2.22;;;;;;;5.98;100.00;95032.88;1051498;28;20261;-67
2021/05/14 01:32:25;;;;;;;2.60;2.25;;;;;;;5.91;100.00;95020.06;1047085;28;20560;-68
2021/05/14 01:32:56;;;;;;;4.57;2.45;;;;;;;5.95;100.00;95037.81;1047129;28;20875;-68
2021/05/14 01:33:26;;;;;;;8.30;2.05;;;;;;;5.97;100.00;95035.72;1043082;28;20094;-68
2021/05/14 01:33:56;;;;;;;4.15;2.20;;;;;;;6.00;100.00;95030.00;1047423;28;20028;-68
2021/05/14 01:34:27;;;;;;;3.75;2.05;;;;;;;6.00;100.00;95032.63;1050719;28;20032;-68
2021/05/14 01:34:57;;;;;;;3.80;2.67;;;;;;;5.93;100.00;95022.41;1051490;28;20020;-68
2021/05/14 01:35:28;;;;;;;5.15;2.55;;;;;;;5.97;100.00;95033.13;1042928;28;20071;-68
2021/05/14 01:35:58;;;;;;;3.80;2.45;;;;;;;5.95;100.00;95032.59;1038434;28;20463;-68
2021/05/14 01:36:29;;;;;;;3.83;2.40;;;;;;;5.93;100.00;95027.63;1033848;28;20775;-68
2021/05/14 01:36:59;;;;;;;3.17;2.50;;;;;;;5.93;100.00;95029.44;1039257;28;20030;-68
2021/05/14 01:37:32;;;;;;;4.47;3.28;;;;;;;5.91;100.00;95030.47;1042908;28;20025;-69
2021/05/14 01:38:03;;;;;;;4.88;2.78;;;;;;;5.88;100.00;95033.56;1050086;28;20486;-68
2021/05/14 01:38:34;;;;;;;3.40;2.35;;;;;;;5.81;100.00;95025.19;1042934;28;20350;-69
2021/05/14 01:39:12;;;;;;;3.88;3.20;;;;;;;5.84;100.00;95031.72;1034829;28;20149;-68
2021/05/14 01:39:42;;;;;;;5.35;3.00;;;;;;;5.85;100.00;95028.06;1040354;28;20033;-68
2021/05/14 01:40:13;;;;;;;5.47;2.30;;;;;;;5.83;100.00;95028.31;1043121;28;20276;-68
2021/05/14 01:40:43;;;;;;;4.57;2.25;;;;;;;5.82;100.00;95024.16;1043092;28;20155;-68
2021/05/14 01:41:14;;;;;;;7.60;2.80;;;;;;;5.83;100.00;95030.13;1042363;28;20646;-68
2021/05/14 01:41:44;;;;;;;10.02;3.08;;;;;;;5.82;100.00;95031.97;1051285;28;20085;-70
2021/05/14 01:42:14;;;;;;;5.65;3.38;;;;;;;5.73;100.00;95019.66;1048744;28;20024;-68
2021/05/14 01:42:47;;;;;;;4.47;2.78;;;;;;;5.70;100.00;95020.97;1044938;28;20041;-68
2021/05/14 01:43:18;;;;;;;6.32;2.70;;;;;;;5.77;100.00;95021.53;1041747;28;20421;-67
2021/05/14 01:43:51;;;;;;;5.00;2.80;;;;;;;5.81;100.00;95030.41;1040332;28;20373;-68
2021/05/14 01:44:21;;;;;;;5.03;2.40;;;;;;;5.80;100.00;95026.22;1037488;28;20087;-67
2021/05/14 01:44:52;;;;;;;5.20;2.50;;;;;;;5.82;100.00;95033.78;1038971;28;20362;-69
2021/05/14 01:45:23;;;;;;;3.60;2.20;;;;;;;5.82;100.00;95029.34;1037952;28;20041;-69
2021/05/14 01:45:54;;;;;;;5.07;2.65;;;;;;;5.80;100.00;95033.22;1032366;28;20120;-68
2021/05/14 01:46:25;;;;;;;4.32;2.83;;;;;;;5.79;100.00;95035.06;1042458;28;20306;-69
2021/05/14 01:46:55;;;;;;;3.03;2.50;;;;;;;5.77;100.00;95026.72;1046746;28;20828;-69
2021/05/14 01:47:25;;;;;;;4.78;2.83;;;;;;;5.77;100.00;95033.72;1047023;28;20428;-68
2021/05/14 01:47:56;;;;;;;3.70;2.38;;;;;;;5.77;100.00;95016.31;1045637;28;20020;-68
2021/05/14 01:48:26;;;;;;;4.35;2.60;;;;;;;5.80;100.00;95036.66;1038725;28;20034;-68
2021/05/14 01:49:00;;;;;;;3.15;2.85;;;;;;;5.77;100.00;95031.94;1042866;28;20037;-68
2021/05/14 01:49:30;;;;;;;2.80;2.50;;;;;;;5.67;100.00;95018.84;1043287;28;20029;-68
2021/05/14 01:50:01;;;;;;;6.93;2.90;;;;;;;5.67;100.00;95021.44;1046843;28;20986;-68
2021/05/14 01:50:31;;;;;;;4.05;3.13;;;;;;;5.73;100.00;95025.63;1038362;28;20025;-68
2021/05/14 01:51:17;;;;;;;2.88;2.30;;;;;;;5.77;100.00;95026.72;1038467;28;20060;-67
2021/05/14 01:51:47;;;;;;;3.88;2.55;;;;;;;5.75;100.00;95028.00;1043065;28;20033;-69
2021/05/14 01:52:18;;;;;;;5.97;2.83;;;;;;;5.74;100.00;95026.44;1046841;28;20785;-68
2021/05/14 01:52:48;;;;;;;3.78;2.40;;;;;;;5.76;100.00;95025.13;1038538;28;20131;-69
2021/05/14 01:53:19;;;;;;;5.20;2.70;;;;;;;5.75;100.00;95031.38;1036045;28;20026;-68
2021/05/14 01:53:50;;;;;;;3.38;2.47;;;;;;;5.74;100.00;95031.66;1034764;28;20029;-68
2021/05/14 01:54:20;;;;;;;2.70;2.40;;;;;;;5.71;100.00;95030.31;1038547;28;20052;-68
2021/05/14 01:54:51;;;;;;;2.38;2.17;;;;;;;5.70;100.00;95026.16;1038873;28;20711;-68
2021/05/14 01:55:21;;;;;;;3.45;2.17;;;;;;;5.50;100.00;94994.75;1042992;28;20138;-68
2021/05/14 01:55:52;;;;;;;3.53;2.20;;;;;;;5.71;100.00;95032.16;1042576;28;20029;-69
2021/05/14 01:56:22;;;;;;;12.80;3.35;;;;;;;5.68;100.00;95025.63;1044741;28;20076;-70
2021/05/14 01:56:53;;;;;;;3.13;2.33;;;;;;;5.66;100.00;95025.06;1038739;28;20571;-67
2021/05/14 01:57:23;;;;;;;4.30;2.60;;;;;;;5.72;100.00;95029.28;1039001;28;20037;-68
2021/05/14 01:57:54;;;;;;;3.90;3.10;;;;;;;5.65;100.00;95020.91;1038691;28;20064;-68
2021/05/14 01:58:24;;;;;;;3.65;3.35;;;;;;;5.68;100.00;95034.19;1042399;28;20037;-70
2021/05/14 01:58:55;;;;;;;3.22;2.70;;;;;;;5.67;100.00;95031.84;1042996;28;20025;-67
2021/05/14 01:59:25;;;;;;;5.78;3.13;;;;;;;5.66;100.00;95030.28;1042870;28;20393;-69
2021/05/14 01:59:59;;;;;;;7.05;2.58;;;;;;;5.54;100.00;95017.44;1044493;28;20584;-66
2021/05/14 02:00:29;;;;;;;6.28;3.22;;;;;;;5.65;100.00;95034.69;1047177;28;20302;-67
2021/05/14 02:01:00;;;;;;;5.38;3.30;;;;;;;5.62;100.00;95026.59;1043026;28;20507;-68
2021/05/14 02:01:30;;;;;;;4.03;3.00;;;;;;;5.59;100.00;95030.47;1046776;28;20032;-70
2021/05/14 02:02:03;;;;;;;5.28;2.72;;;;;;;5.58;100.00;95028.13;1038644;28;20033;-68
2021/05/14 02:02:37;;;;;;;3.67;2.67;;;;;;;5.58;100.00;95025.53;1034667;28;20291;-67
2021/05/14 02:03:07;;;;;;;4.43;2.40;;;;;;;5.55;100.00;95032.00;1039265;28;20045;-68
2021/05/14 02:03:38;;;;;;;4.68;3.10;;;;;;;5.56;100.00;95030.19;1044945;28;20275;-70
2021/05/14 02:04:11;;;;;;;6.88;2.75;;;;;;;5.62;100.00;95034.41;1046997;28;20543;-70
2021/05/14 02:04:41;;;;;;;5.60;2.88;;;;;;;5.62;100.00;95029.97;1040657;28;20351;-69
2021/05/14 02:05:12;;;;;;;4.45;2.90;;;;;;;5.65;100.00;95031.31;1042535;28;20040;-69
2021/05/14 02:05:42;;;;;;;7.20;3.58;;;;;;;5.62;100.00;95034.41;1036636;28;20457;-66
2021/05/14 02:06:13;;;;;;;3.03;2.35;;;;;;;5.63;100.00;95026.38;1042601;28;20044;-68
2021/05/14 02:06:43;;;;;;;6.70;3.00;;;;;;;5.64;100.00;95037.56;1036479;28;20045;-70
2021/05/14 02:07:14;;;;;;;3.05;2.75;;;;;;;5.63;100.00;95035.97;1042945;28;20028;-69
2021/05/14 02:07:44;;;;;;;5.22;2.00;;;;;;;5.65;100.00;95036.53;1042727;28;20029;-70
2021/05/14 02:08:14;;;;;;;4.05;2.60;;;;;;;5.62;100.00;95037.00;1043014;28;20025;-68
2021/05/14 02:08:45;;;;;;;4.03;2.95;;;;;;;5.62;100.00;95034.41;1044347;28;20028;-68
2021/05/14 02:09:19;;;;;;;3.92;2.97;;;;;;;5.64;100.00;95034.97;1037672;28;20087;-69
2021/05/14 02:09:58;;;;;;;4.15;3.10;;;;;;;5.67;100.00;95034.47;1042568;28;20275;-69
2021/05/14 02:10:29;;;;;;;5.53;3.15;;;;;;;5.65;100.00;95033.91;1042108;28;20264;-70
2021/05/14 02:10:59;;;;;;;5.82;3.17;;;;;;;5.64;100.00;95035.75;1048532;28;20473;-68
2021/05/14 02:11:30;;;;;;;4.57;2.85;;;;;;;5.65;100.00;95031.31;1042625;28;20694;-68
2021/05/14 02:12:00;;;;;;;3.63;2.88;;;;;;;5.70;100.00;95031.38;1042658;28;20555;-68
2021/05/14 02:12:31;;;;;;;6.10;3.30;;;;;;;5.59;100.00;95019.28;1042404;28;20024;-69
2021/05/14 02:13:01;;;;;;;5.65;3.05;;;;;;;5.67;100.00;95031.84;1034614;28;20026;-69
2021/05/14 02:13:32;;;;;;;5.13;2.67;;;;;;;5.64;100.00;95027.16;1031967;28;20089;-68
2021/05/14 02:14:02;;;;;;;4.57;2.38;;;;;;;5.70;100.00;95030.56;1035057;28;20033;-67
2021/05/14 02:14:33;;;;;;;3.00;2.50;;;;;;;5.70;100.00;95028.75;1039048;28;20530;-67
2021/05/14 02:15:05;;;;;;;3.40;3.05;;;;;;;5.64;100.00;95027.94;1041412;28;20326;-68
2021/05/14 02:15:35;;;;;;;4.07;2.70;;;;;;;5.66;100.00;95030.28;1038643;28;20025;-69
2021/05/14 02:16:07;;;;;;;6.72;2.72;;;;;;;5.70;100.00;95031.38;1045102;28;20282;-67
2021/05/14 02:16:37;;;;;;;3.10;2.58;;;;;;;5.67;100.00;95031.84;1046968;28;20052;-69
2021/05/14 02:17:08;;;;;;;3.17;2.55;;;;;;;5.62;100.00;95018.78;1046761;28;20943;-68
2021/05/14 02:17:38;;;;;;;4.40;3.00;;;;;;;5.68;100.00;95030.81;1044915;28;20133;-68
2021/05/14 02:18:08;;;;;;;4.80;2.80;;;;;;;5.66;100.00;95022.47;1042826;28;20041;-68
2021/05/14 02:18:39;;;;;;;3.13;2.80;;;;;;;5.67;100.00;95026.66;1042613;28;20442;-68
2021/05/14 02:19:09;;;;;;;5.65;2.90;;;;;;;5.68;100.00;95028.22;1041920;28;20496;-68
2021/05/14 02:19:40;;;;;;;4.07;2.70;;;;;;;5.70;100.00;95033.16;1046979;28;20028;-68
2021/05/14 02:20:11;;;;;;;4.57;2.75;;;;;;;5.62;100.00;95018.78;1044838;28;20036;-67
2021/05/14 02:20:41;;;;;;;2.50;2.28;;;;;;;5.64;100.00;95016.75;1055405;28;20019;-68
2021/05/14 02:21:12;;;;;;;3.13;2.70;;;;;;;5.62;100.00;95013.59;1050442;28;20270;-69
2021/05/14 02:21:42;;;;;;;2.78;2.45;;;;;;;5.66;100.00;95023.25;1047047;28;20028;-69
2021/05/14 02:22:13;;;;;;;3.97;3.28;;;;;;;5.60;100.00;95011.25;1038569;28;20036;-68
2021/05/14 02:22:45;;;;;;;6.50;3.35;;;;;;;5.65;100.00;95028.72;1036313;28;20519;-68
2021/05/14 02:23:15;;;;;;;5.28;3.08;;;;;;;5.63;100.00;95025.56;1042972;28;20028;-70
2021/05/14 02:23:46;;;;;;;5.20;3.67;;;;;;;5.57;100.00;95018.78;1044156;28;20263;-68
2021/05/14 02:24:19;;;;;;;4.97;3.42;;;;;;;5.58;100.00;95030.75;1042633;28;20059;-68
2021/05/14 02:24:50;;;;;;;5.13;3.25;;;;;;;5.58;100.00;95028.13;1042607;28;20025;-69
2021/05/14 02:25:20;;;;;;;8.70;3.65;;;;;;;5.50;100.00;95021.56;1037370;28;20271;-68
2021/05/14 02:25:51;;;;;;;6.10;3.80;;;;;;;5.54;100.00;95024.47;1036858;28;20051;-69
2021/05/14 02:26:21;;;;;;;8.73;4.20;;;;;;;5.51;100.00;95022.34;1038309;28;20037;-68